Time;durP1;ratioP1;P1;durP2;ratioP2;P2;SDS_P1;SDS_P2;PMS_P1;PMS_P2;Temp;Humidity;BMP_temperature;BMP_pressure;BME280_temperature;BME280_humidity;BME280_pressure;Samples;Min_cycle;Max_cycle;Signal;HPM_P1;HPM_P2
2022/04/08 00:00:17;;;;;;;2.63;0.80;;;;;;;;;;5041929;28;20033;-75
2022/04/08 00:02:43;;;;;;;3.67;0.73;;;;;;;;;;5040909;28;20029;-76
2022/04/08 00:05:09;;;;;;;3.13;0.70;;;;;;;;;;5039852;28;20025;-76
2022/04/08 00:07:34;;;;;;;1.83;0.60;;;;;;;;;;5041418;28;20029;-75
2022/04/08 00:10:00;;;;;;;3.70;1.05;;;;;;;;;;5040211;28;20033;-74
2022/04/08 00:12:25;;;;;;;1.63;0.70;;;;;;;;;;5040103;28;20025;-75
2022/04/08 00:14:50;;;;;;;3.30;0.75;;;;;;;;;;5040262;28;20301;-75
2022/04/08 00:17:15;;;;;;;6.23;0.70;;;;;;;;;;5040110;28;20033;-75
2022/04/08 00:19:40;;;;;;;5.78;1.00;;;;;;;;;;5040182;28;20316;-76
2022/04/08 00:22:06;;;;;;;3.78;1.10;;;;;;;;;;5041122;28;20017;-75
2022/04/08 00:24:31;;;;;;;3.10;0.90;;;;;;;;;;5040870;28;20025;-75
2022/04/08 00:26:57;;;;;;;6.57;0.68;;;;;;;;;;5042120;28;20281;-76
2022/04/08 00:29:22;;;;;;;2.95;0.70;;;;;;;;;;5042288;28;20453;-76
2022/04/08 00:31:47;;;;;;;3.17;0.63;;;;;;;;;;5041404;28;20025;-76
2022/04/08 00:34:13;;;;;;;1.73;0.60;;;;;;;;;;5042634;28;20025;-75
2022/04/08 00:36:38;;;;;;;3.65;0.70;;;;;;;;;;5044109;28;20136;-75
2022/04/08 00:39:03;;;;;;;3.47;0.60;;;;;;;;;;5045864;28;20033;-75
2022/04/08 00:41:28;;;;;;;4.45;1.02;;;;;;;;;;5046503;28;20076;-77
2022/04/08 00:43:54;;;;;;;3.13;0.45;;;;;;;;;;5045284;28;20037;-76
2022/04/08 00:46:19;;;;;;;4.22;0.82;;;;;;;;;;5045551;28;20498;-77
2022/04/08 00:48:44;;;;;;;2.15;0.73;;;;;;;;;;5044828;28;20026;-77
2022/04/08 00:51:11;;;;;;;3.60;0.70;;;;;;;;;;5044099;28;20017;-77
2022/04/08 00:53:37;;;;;;;5.15;0.70;;;;;;;;;;5044792;28;20164;-76
2022/04/08 00:56:03;;;;;;;3.03;0.63;;;;;;;;;;5044976;28;20044;-77
2022/04/08 00:58:29;;;;;;;3.03;0.60;;;;;;;;;;5043954;28;20061;-76
2022/04/08 01:00:54;;;;;;;2.33;0.65;;;;;;;;;;5044843;28;20017;-77
2022/04/08 01:03:19;;;;;;;3.33;0.70;;;;;;;;;;5045052;28;20083;-77
2022/04/08 01:05:45;;;;;;;1.17;0.50;;;;;;;;;;5045861;28;20029;-77
2022/04/08 01:08:11;;;;;;;3.53;0.65;;;;;;;;;;5046042;28;20156;-76
2022/04/08 01:10:38;;;;;;;2.17;0.80;;;;;;;;;;5045440;28;20025;-76
2022/04/08 01:13:04;;;;;;;1.75;0.60;;;;;;;;;;5047329;28;20498;-77
2022/04/08 01:15:29;;;;;;;1.85;0.52;;;;;;;;;;5047985;28;20037;-76
2022/04/08 01:17:55;;;;;;;3.08;0.88;;;;;;;;;;5047155;28;20085;-77
2022/04/08 01:20:20;;;;;;;1.77;0.60;;;;;;;;;;5047059;28;20036;-76
2022/04/08 01:22:45;;;;;;;2.10;0.43;;;;;;;;;;5046292;28;20018;-76
2022/04/08 01:25:12;;;;;;;2.58;0.52;;;;;;;;;;5045985;28;20258;-76
2022/04/08 01:27:40;;;;;;;4.28;0.65;;;;;;;;;;5047569;28;20040;-76
2022/04/08 01:30:09;;;;;;;2.95;0.63;;;;;;;;;;5047464;28;20029;-74
2022/04/08 01:32:35;;;;;;;6.28;0.80;;;;;;;;;;5045940;28;20053;-75
2022/04/08 01:35:00;;;;;;;1.80;0.70;;;;;;;;;;5047217;28;20026;-75
2022/04/08 01:37:26;;;;;;;1.23;0.40;;;;;;;;;;5044930;28;20045;-77
2022/04/08 01:39:51;;;;;;;2.58;0.73;;;;;;;;;;5045776;28;20021;-75
2022/04/08 01:42:22;;;;;;;1.73;0.82;;;;;;;;;;5046030;28;20048;-75
2022/04/08 01:44:47;;;;;;;1.30;0.50;;;;;;;;;;5047217;28;20021;-76
2022/04/08 01:47:13;;;;;;;2.95;0.50;;;;;;;;;;5047448;28;20029;-76
2022/04/08 01:49:38;;;;;;;2.45;0.57;;;;;;;;;;5046859;28;20030;-75
2022/04/08 01:52:04;;;;;;;3.13;0.80;;;;;;;;;;5047929;28;20021;-75
2022/04/08 01:54:29;;;;;;;2.15;0.60;;;;;;;;;;5046673;28;20425;-75
2022/04/08 01:56:54;;;;;;;2.95;0.43;;;;;;;;;;5044876;28;20029;-76
2022/04/08 01:59:20;;;;;;;3.65;0.80;;;;;;;;;;5046576;28;20052;-76
2022/04/08 02:01:45;;;;;;;1.40;0.52;;;;;;;;;;5045742;28;20112;-76
2022/04/08 02:04:10;;;;;;;3.47;0.60;;;;;;;;;;5045579;28;20085;-75
2022/04/08 02:06:36;;;;;;;3.40;0.60;;;;;;;;;;5044603;28;20021;-75
2022/04/08 02:09:02;;;;;;;3.55;0.70;;;;;;;;;;5044401;28;20289;-76
2022/04/08 02:11:28;;;;;;;2.08;0.70;;;;;;;;;;5044240;28;20474;-76
2022/04/08 02:13:53;;;;;;;4.13;0.55;;;;;;;;;;5045386;28;20441;-75
2022/04/08 02:16:18;;;;;;;0.73;0.40;;;;;;;;;;5045002;28;20095;-76
2022/04/08 02:18:43;;;;;;;1.70;0.68;;;;;;;;;;5045439;28;20025;-75
2022/04/08 02:21:09;;;;;;;5.38;0.82;;;;;;;;;;5045288;28;20026;-77
2022/04/08 02:23:35;;;;;;;0.93;0.40;;;;;;;;;;5045811;28;20025;-76
2022/04/08 02:26:01;;;;;;;2.92;0.85;;;;;;;;;;5046346;28;20049;-76
2022/04/08 02:28:26;;;;;;;5.30;1.33;;;;;;;;;;5045038;28;20028;-76
2022/04/08 02:30:53;;;;;;;2.42;0.82;;;;;;;;;;5044387;28;20037;-76
2022/04/08 02:33:19;;;;;;;1.88;0.70;;;;;;;;;;5044358;28;20033;-75
2022/04/08 02:35:44;;;;;;;3.88;0.98;;;;;;;;;;5046417;28;20040;-75
2022/04/08 02:38:10;;;;;;;1.52;0.60;;;;;;;;;;5046052;28;20022;-75
2022/04/08 02:40:35;;;;;;;4.95;0.80;;;;;;;;;;5046498;28;20124;-75
2022/04/08 02:43:01;;;;;;;3.40;0.77;;;;;;;;;;5044226;28;20024;-76
2022/04/08 02:45:26;;;;;;;4.18;0.73;;;;;;;;;;5046369;28;20037;-75
2022/04/08 02:47:51;;;;;;;3.77;1.00;;;;;;;;;;5045107;28;20037;-75
2022/04/08 02:50:17;;;;;;;2.77;0.50;;;;;;;;;;5046480;28;20265;-75
2022/04/08 02:52:42;;;;;;;4.13;0.70;;;;;;;;;;5047490;28;20354;-76
2022/04/08 02:55:08;;;;;;;2.57;0.80;;;;;;;;;;5045967;28;20048;-76
2022/04/08 02:57:37;;;;;;;2.50;0.77;;;;;;;;;;5049283;28;20297;-76
2022/04/08 03:00:03;;;;;;;3.13;0.80;;;;;;;;;;5048588;28;20056;-76
2022/04/08 03:02:28;;;;;;;5.22;0.90;;;;;;;;;;5048417;28;20479;-76
2022/04/08 03:04:54;;;;;;;3.13;0.88;;;;;;;;;;5043563;28;20089;-76
2022/04/08 03:07:20;;;;;;;3.50;0.80;;;;;;;;;;5040223;28;20055;-76
2022/04/08 03:09:45;;;;;;;1.35;0.75;;;;;;;;;;5039143;28;20025;-76
2022/04/08 03:12:10;;;;;;;1.40;0.70;;;;;;;;;;5040462;28;20093;-76
2022/04/08 03:14:35;;;;;;;2.17;0.82;;;;;;;;;;5039112;28;20034;-76
2022/04/08 03:17:01;;;;;;;1.83;0.83;;;;;;;;;;5040026;28;20021;-76
2022/04/08 03:19:27;;;;;;;2.25;0.80;;;;;;;;;;5041044;28;20285;-77
2022/04/08 03:21:52;;;;;;;2.60;0.80;;;;;;;;;;5038676;28;20457;-76
2022/04/08 03:24:17;;;;;;;1.58;0.77;;;;;;;;;;5040885;28;20551;-76
2022/04/08 03:26:43;;;;;;;2.50;0.88;;;;;;;;;;5039848;28;20025;-76
2022/04/08 03:29:08;;;;;;;1.33;0.63;;;;;;;;;;5039473;28;20041;-76
2022/04/08 03:31:33;;;;;;;2.70;0.75;;;;;;;;;;5039619;28;20033;-77
2022/04/08 03:33:58;;;;;;;2.17;0.80;;;;;;;;;;5040033;28;20100;-75
2022/04/08 03:36:24;;;;;;;1.52;0.77;;;;;;;;;;5039973;28;20305;-75
2022/04/08 03:38:49;;;;;;;3.53;0.82;;;;;;;;;;5037750;28;20025;-77
2022/04/08 03:41:15;;;;;;;2.58;0.85;;;;;;;;;;5038162;28;20461;-76
2022/04/08 03:43:41;;;;;;;2.80;0.60;;;;;;;;;;5039091;28;20075;-75
2022/04/08 03:46:06;;;;;;;0.80;0.45;;;;;;;;;;5038457;28;20038;-76
2022/04/08 03:48:31;;;;;;;3.03;0.52;;;;;;;;;;5039054;28;20167;-76
2022/04/08 03:50:56;;;;;;;3.60;0.57;;;;;;;;;;5038558;28;20485;-76
2022/04/08 03:53:22;;;;;;;1.30;0.43;;;;;;;;;;5037970;28;20033;-76
2022/04/08 03:55:47;;;;;;;1.73;0.70;;;;;;;;;;5040480;28;20092;-77
2022/04/08 03:58:13;;;;;;;0.98;0.60;;;;;;;;;;5039710;28;20513;-76
2022/04/08 04:00:39;;;;;;;2.25;0.52;;;;;;;;;;5039294;28;20541;-77
2022/04/08 04:03:05;;;;;;;4.00;0.60;;;;;;;;;;5022620;28;20013;-77
2022/04/08 04:05:34;;;;;;;0.98;0.65;;;;;;;;;;5039999;28;20036;-76
2022/04/08 04:08:00;;;;;;;1.35;0.60;;;;;;;;;;5040695;28;20037;-77
2022/04/08 04:10:25;;;;;;;0.80;0.50;;;;;;;;;;5040824;28;20430;-76
2022/04/08 04:12:51;;;;;;;1.15;0.50;;;;;;;;;;5042259;28;20032;-76
2022/04/08 04:15:17;;;;;;;2.80;0.70;;;;;;;;;;5043769;28;20100;-76
2022/04/08 04:17:42;;;;;;;1.20;0.70;;;;;;;;;;5043511;28;20474;-76
2022/04/08 04:20:08;;;;;;;0.63;0.43;;;;;;;;;;5043586;28;20071;-76
2022/04/08 04:22:33;;;;;;;4.70;0.93;;;;;;;;;;5044417;28;20018;-76
2022/04/08 04:24:58;;;;;;;1.05;0.50;;;;;;;;;;5044700;28;20112;-76
2022/04/08 04:27:24;;;;;;;2.87;0.70;;;;;;;;;;5044303;28;20116;-76
2022/04/08 04:29:49;;;;;;;0.97;0.50;;;;;;;;;;5044064;28;20294;-76
2022/04/08 04:32:17;;;;;;;1.17;0.80;;;;;;;;;;5043535;28;20281;-77
2022/04/08 04:34:42;;;;;;;2.55;0.73;;;;;;;;;;5044870;28;20025;-76
2022/04/08 04:37:08;;;;;;;1.25;0.50;;;;;;;;;;5045111;28;20059;-77
2022/04/08 04:39:34;;;;;;;1.38;0.73;;;;;;;;;;5044842;28;20100;-76
2022/04/08 04:41:59;;;;;;;0.73;0.60;;;;;;;;;;5045761;28;20021;-77
2022/04/08 04:44:27;;;;;;;0.60;0.60;;;;;;;;;;5045154;28;20036;-77
2022/04/08 04:46:52;;;;;;;2.47;0.70;;;;;;;;;;5043921;28;20060;-76
2022/04/08 04:49:18;;;;;;;2.08;0.70;;;;;;;;;;5044931;28;20033;-77
2022/04/08 04:51:43;;;;;;;1.17;0.73;;;;;;;;;;5044328;28;20032;-77
2022/04/08 04:54:08;;;;;;;2.53;0.80;;;;;;;;;;5044632;28;20082;-77
2022/04/08 04:56:33;;;;;;;1.95;0.80;;;;;;;;;;5044746;28;20033;-77
2022/04/08 04:58:59;;;;;;;1.02;0.63;;;;;;;;;;5044173;28;20037;-75
2022/04/08 05:01:24;;;;;;;2.10;0.90;;;;;;;;;;5045699;28;20121;-76
2022/04/08 05:03:49;;;;;;;2.80;0.97;;;;;;;;;;5046462;28;20045;-77
2022/04/08 05:06:14;;;;;;;2.15;0.80;;;;;;;;;;5046334;28;20270;-76
2022/04/08 05:08:40;;;;;;;1.45;0.90;;;;;;;;;;5046946;28;20390;-77
2022/04/08 05:11:05;;;;;;;3.63;0.88;;;;;;;;;;5044423;28;20030;-77
2022/04/08 05:13:32;;;;;;;4.68;1.30;;;;;;;;;;5045142;28;20036;-77
2022/04/08 05:15:58;;;;;;;2.40;0.77;;;;;;;;;;5045670;28;20026;-75
2022/04/08 05:18:23;;;;;;;2.63;0.85;;;;;;;;;;5045126;28;20024;-76
2022/04/08 05:20:52;;;;;;;1.52;0.70;;;;;;;;;;5044884;28;20030;-76
2022/04/08 05:23:17;;;;;;;4.60;1.02;;;;;;;;;;5045800;28;20037;-76
2022/04/08 05:25:43;;;;;;;2.22;0.80;;;;;;;;;;5044544;28;20025;-76
2022/04/08 05:28:11;;;;;;;2.85;1.00;;;;;;;;;;5045158;28;20459;-76
2022/04/08 05:30:37;;;;;;;3.50;0.80;;;;;;;;;;5045552;28;20029;-76
2022/04/08 05:33:02;;;;;;;1.75;0.90;;;;;;;;;;5046315;28;20024;-76
2022/04/08 05:35:27;;;;;;;2.25;0.90;;;;;;;;;;5045649;28;20029;-76
2022/04/08 05:37:53;;;;;;;2.42;1.00;;;;;;;;;;5045535;28;20076;-76
2022/04/08 05:40:21;;;;;;;1.50;0.90;;;;;;;;;;5045520;28;20040;-75
2022/04/08 05:42:50;;;;;;;0.80;0.80;;;;;;;;;;5045212;28;20255;-76
2022/04/08 05:45:18;;;;;;;2.22;0.80;;;;;;;;;;5046375;28;20021;-76
2022/04/08 05:47:44;;;;;;;3.72;0.90;;;;;;;;;;5044976;28;20055;-75
2022/04/08 05:50:11;;;;;;;5.72;1.00;;;;;;;;;;5044756;28;20025;-75
2022/04/08 05:52:36;;;;;;;1.35;0.60;;;;;;;;;;5045173;28;20021;-75
2022/04/08 05:55:02;;;;;;;1.80;0.90;;;;;;;;;;5044658;28;20030;-75
2022/04/08 05:57:27;;;;;;;2.22;1.00;;;;;;;;;;5043142;28;20025;-77
2022/04/08 05:59:59;;;;;;;1.98;0.88;;;;;;;;;;5043608;28;20030;-76
2022/04/08 06:02:24;;;;;;;1.35;0.77;;;;;;;;;;5045615;28;20025;-77
2022/04/08 06:04:49;;;;;;;2.45;1.02;;;;;;;;;;5046414;28;20029;-76
2022/04/08 06:07:15;;;;;;;3.45;0.80;;;;;;;;;;5047472;28;20501;-77
2022/04/08 06:09:40;;;;;;;2.33;1.00;;;;;;;;;;5047541;28;20025;-75
2022/04/08 06:12:05;;;;;;;1.73;1.00;;;;;;;;;;5046940;28;20029;-76
2022/04/08 06:14:31;;;;;;;1.60;0.82;;;;;;;;;;5046904;28;20282;-76
2022/04/08 06:16:57;;;;;;;1.67;0.60;;;;;;;;;;5045215;28;20056;-76
2022/04/08 06:19:22;;;;;;;1.75;0.88;;;;;;;;;;5045743;28;20083;-76
2022/04/08 06:21:47;;;;;;;1.97;1.00;;;;;;;;;;5044687;28;20538;-75
2022/04/08 06:24:12;;;;;;;1.40;0.70;;;;;;;;;;5042027;28;20781;-76
2022/04/08 06:26:38;;;;;;;1.13;0.40;;;;;;;;;;5044660;28;20830;-76
2022/04/08 06:29:04;;;;;;;3.60;0.82;;;;;;;;;;5042521;28;20025;-76
2022/04/08 06:31:31;;;;;;;2.35;0.82;;;;;;;;;;5042058;28;20017;-76
2022/04/08 06:34:00;;;;;;;1.65;0.90;;;;;;;;;;5042545;28;20108;-75
2022/04/08 06:36:26;;;;;;;3.88;1.40;;;;;;;;;;5041517;28;20025;-75
2022/04/08 06:38:51;;;;;;;1.38;0.80;;;;;;;;;;5042531;28;20450;-76
2022/04/08 06:41:17;;;;;;;1.95;1.10;;;;;;;;;;5037952;28;20064;-75
2022/04/08 06:43:42;;;;;;;0.90;0.80;;;;;;;;;;5040150;28;20045;-76
2022/04/08 06:46:07;;;;;;;4.82;1.00;;;;;;;;;;5038159;28;20061;-76
2022/04/08 06:48:33;;;;;;;2.17;1.00;;;;;;;;;;5037809;28;20021;-76
2022/04/08 06:51:00;;;;;;;2.60;1.10;;;;;;;;;;5040091;28;20403;-75
2022/04/08 06:53:25;;;;;;;5.05;1.77;;;;;;;;;;5039255;28;20110;-75
2022/04/08 06:55:51;;;;;;;3.78;1.30;;;;;;;;;;5038558;28;20064;-76
2022/04/08 06:58:16;;;;;;;1.38;0.80;;;;;;;;;;5038971;28;20053;-76
2022/04/08 07:00:42;;;;;;;1.88;0.93;;;;;;;;;;5038029;28;20026;-76
2022/04/08 07:03:07;;;;;;;0.75;0.70;;;;;;;;;;5039539;28;20109;-75
2022/04/08 07:05:32;;;;;;;1.33;0.70;;;;;;;;;;5039662;28;20033;-76
2022/04/08 07:07:58;;;;;;;1.87;0.97;;;;;;;;;;5038987;28;20112;-76
2022/04/08 07:10:24;;;;;;;2.33;0.80;;;;;;;;;;5039989;28;20348;-75
2022/04/08 07:12:49;;;;;;;1.60;0.80;;;;;;;;;;5039296;28;20475;-76
2022/04/08 07:15:14;;;;;;;1.13;0.68;;;;;;;;;;5039393;28;20037;-76
2022/04/08 07:17:39;;;;;;;1.50;0.70;;;;;;;;;;5038419;28;20524;-76
2022/04/08 07:20:05;;;;;;;1.83;0.80;;;;;;;;;;5037479;28;20438;-76
2022/04/08 07:22:31;;;;;;;2.60;0.80;;;;;;;;;;5038931;28;20034;-75
2022/04/08 07:24:56;;;;;;;1.88;0.60;;;;;;;;;;5039074;28;20047;-77
2022/04/08 07:27:22;;;;;;;2.50;0.88;;;;;;;;;;5038367;28;20107;-76
2022/04/08 07:29:49;;;;;;;1.65;0.70;;;;;;;;;;5038269;28;20037;-75
2022/04/08 07:32:20;;;;;;;1.25;0.70;;;;;;;;;;5036584;28;20032;-75
2022/04/08 07:34:50;;;;;;;1.35;0.80;;;;;;;;;;5038573;28;20126;-76
2022/04/08 07:37:15;;;;;;;1.20;0.63;;;;;;;;;;5037431;28;20047;-77
2022/04/08 07:39:42;;;;;;;1.13;0.50;;;;;;;;;;5036996;28;20092;-77
2022/04/08 07:42:08;;;;;;;1.55;0.68;;;;;;;;;;5039318;28;20017;-75
2022/04/08 07:44:33;;;;;;;1.65;0.80;;;;;;;;;;5040570;28;20558;-76
2022/04/08 07:46:59;;;;;;;0.60;0.60;;;;;;;;;;5041023;28;20028;-77
2022/04/08 07:49:24;;;;;;;2.25;0.70;;;;;;;;;;5040571;28;20029;-75
2022/04/08 07:51:49;;;;;;;1.08;0.50;;;;;;;;;;5041502;28;20025;-76
2022/04/08 07:54:14;;;;;;;1.00;0.80;;;;;;;;;;5039226;28;20021;-75
2022/04/08 07:56:40;;;;;;;1.07;0.80;;;;;;;;;;5037077;28;20030;-76
2022/04/08 07:59:05;;;;;;;1.25;0.70;;;;;;;;;;5038072;28;20307;-76
2022/04/08 08:01:30;;;;;;;1.73;0.73;;;;;;;;;;5038916;28;20525;-76
2022/04/08 08:03:55;;;;;;;2.05;0.73;;;;;;;;;;5040107;28;20463;-77
2022/04/08 08:06:21;;;;;;;1.17;0.70;;;;;;;;;;5039134;28;20041;-76
2022/04/08 08:08:46;;;;;;;2.22;0.90;;;;;;;;;;5038253;28;20267;-76
2022/04/08 08:11:13;;;;;;;3.20;0.80;;;;;;;;;;5038662;28;20099;-77
2022/04/08 08:13:39;;;;;;;2.60;0.70;;;;;;;;;;5040926;28;20029;-75
2022/04/08 08:16:09;;;;;;;0.40;0.30;;;;;;;;;;5041499;28;20506;-76
2022/04/08 08:18:34;;;;;;;2.13;0.52;;;;;;;;;;5040506;28;20026;-76
2022/04/08 08:21:00;;;;;;;1.08;0.80;;;;;;;;;;5041958;28;20073;-76
2022/04/08 08:23:25;;;;;;;1.60;0.60;;;;;;;;;;5041685;28;20029;-76
2022/04/08 08:25:50;;;;;;;2.22;0.57;;;;;;;;;;5042142;28;20051;-76
2022/04/08 08:28:15;;;;;;;2.60;0.70;;;;;;;;;;5040739;28;20040;-77
2022/04/08 08:30:41;;;;;;;1.20;0.70;;;;;;;;;;5041427;28;20048;-77
2022/04/08 08:33:06;;;;;;;1.65;0.60;;;;;;;;;;5040978;28;20181;-76
2022/04/08 08:35:33;;;;;;;1.08;0.50;;;;;;;;;;5039939;28;20029;-75
2022/04/08 08:37:59;;;;;;;1.35;0.63;;;;;;;;;;5037669;28;20030;-76
2022/04/08 08:40:24;;;;;;;0.90;0.70;;;;;;;;;;5039627;28;20031;-76
2022/04/08 08:42:49;;;;;;;0.80;0.40;;;;;;;;;;5039918;28;20053;-76
2022/04/08 08:45:15;;;;;;;1.10;0.60;;;;;;;;;;5040739;28;20052;-76
2022/04/08 08:47:45;;;;;;;2.05;0.70;;;;;;;;;;5037612;28;20029;-76
2022/04/08 08:50:11;;;;;;;1.60;0.60;;;;;;;;;;5039842;28;20079;-76
2022/04/08 08:52:37;;;;;;;1.13;0.60;;;;;;;;;;5039908;28;20029;-77
2022/04/08 08:55:06;;;;;;;1.17;0.60;;;;;;;;;;5038458;28;20068;-76
2022/04/08 08:57:32;;;;;;;1.15;0.55;;;;;;;;;;5039146;28;20029;-76
2022/04/08 09:00:12;;;;;;;2.13;0.70;;;;;;;;;;5042101;28;20048;-75
2022/04/08 09:02:38;;;;;;;1.20;0.60;;;;;;;;;;5042289;28;20028;-76
2022/04/08 09:05:24;;;;;;;1.23;0.50;;;;;;;;;;5042014;28;20033;-76
2022/04/08 09:07:56;;;;;;;0.75;0.43;;;;;;;;;;5040359;28;20040;-76
2022/04/08 09:10:26;;;;;;;1.40;0.50;;;;;;;;;;5041866;28;20087;-76
2022/04/08 09:12:55;;;;;;;0.57;0.40;;;;;;;;;;5041240;28;20061;-75
2022/04/08 09:15:21;;;;;;;3.58;0.75;;;;;;;;;;5039822;28;20029;-75
2022/04/08 09:17:46;;;;;;;1.15;0.50;;;;;;;;;;5041464;28;20364;-77
2022/04/08 09:20:12;;;;;;;1.67;0.50;;;;;;;;;;5041488;28;20035;-76
2022/04/08 09:22:37;;;;;;;1.27;0.80;;;;;;;;;;5042249;28;20025;-76
2022/04/08 09:25:10;;;;;;;1.02;0.50;;;;;;;;;;5040076;28;20119;-76
2022/04/08 09:27:37;;;;;;;2.77;0.80;;;;;;;;;;5039848;28;20049;-75
2022/04/08 09:30:03;;;;;;;2.00;0.70;;;;;;;;;;5040749;28;20415;-76
2022/04/08 09:32:28;;;;;;;2.83;0.68;;;;;;;;;;5043490;28;20072;-76
2022/04/08 09:34:53;;;;;;;1.38;0.90;;;;;;;;;;5041245;28;20028;-76
2022/04/08 09:37:19;;;;;;;1.77;0.68;;;;;;;;;;5040758;28;20503;-76
2022/04/08 09:40:04;;;;;;;2.23;0.73;;;;;;;;;;5040422;28;20421;-76
2022/04/08 09:42:44;;;;;;;1.63;0.70;;;;;;;;;;5039832;28;20274;-77
2022/04/08 09:45:10;;;;;;;2.17;0.80;;;;;;;;;;5040434;28;20084;-75
2022/04/08 09:47:37;;;;;;;2.88;0.80;;;;;;;;;;5039186;28;20380;-76
2022/04/08 09:50:02;;;;;;;1.17;0.70;;;;;;;;;;5040557;28;20034;-77
2022/04/08 09:52:28;;;;;;;1.75;0.90;;;;;;;;;;5040801;28;20036;-74
2022/04/08 09:54:57;;;;;;;2.28;0.63;;;;;;;;;;5039712;28;20025;-76
2022/04/08 09:57:23;;;;;;;1.15;0.52;;;;;;;;;;5022591;28;20121;-76
2022/04/08 09:59:54;;;;;;;3.00;0.70;;;;;;;;;;5041121;28;20053;-76
2022/04/08 10:02:21;;;;;;;1.40;0.60;;;;;;;;;;5041681;28;20025;-75
2022/04/08 10:04:47;;;;;;;1.30;0.60;;;;;;;;;;5041865;28;20025;-76
2022/04/08 10:07:12;;;;;;;1.65;0.70;;;;;;;;;;5041198;28;20081;-75
2022/04/08 10:09:48;;;;;;;0.93;0.52;;;;;;;;;;5039530;28;20021;-75
2022/04/08 10:12:40;;;;;;;1.73;0.60;;;;;;;;;;5042332;28;20030;-76
2022/04/08 10:15:23;;;;;;;1.60;1.10;;;;;;;;;;5041182;28;20032;-75
2022/04/08 10:17:57;;;;;;;1.10;0.60;;;;;;;;;;5040754;28;20025;-74
2022/04/08 10:20:23;;;;;;;2.65;0.90;;;;;;;;;;5038888;28;20025;-76
2022/04/08 10:22:49;;;;;;;2.92;0.85;;;;;;;;;;5037996;28;20029;-75
2022/04/08 10:25:16;;;;;;;2.28;0.90;;;;;;;;;;5039304;28;20029;-75
2022/04/08 10:27:43;;;;;;;4.68;0.93;;;;;;;;;;5039121;28;20029;-75
2022/04/08 10:30:21;;;;;;;1.08;0.80;;;;;;;;;;5041145;28;20035;-76
2022/04/08 10:32:59;;;;;;;2.95;1.00;;;;;;;;;;5041459;28;20104;-75
2022/04/08 10:35:24;;;;;;;2.05;1.00;;;;;;;;;;5041970;28;20064;-76
2022/04/08 10:37:58;;;;;;;1.05;0.70;;;;;;;;;;5039969;28;20038;-75
2022/04/08 10:40:38;;;;;;;2.03;0.85;;;;;;;;;;5037513;28;20439;-77
2022/04/08 10:43:06;;;;;;;2.58;0.75;;;;;;;;;;5036600;28;20442;-77
2022/04/08 10:45:32;;;;;;;3.38;1.08;;;;;;;;;;5038855;28;20040;-75
2022/04/08 10:48:18;;;;;;;1.73;0.90;;;;;;;;;;5041656;28;20037;-75
2022/04/08 10:50:43;;;;;;;1.98;0.90;;;;;;;;;;5040780;28;20037;-74
2022/04/08 10:53:09;;;;;;;1.70;0.90;;;;;;;;;;5040335;28;20056;-75
2022/04/08 10:55:53;;;;;;;2.72;0.88;;;;;;;;;;5041849;28;20057;-75
2022/04/08 10:58:38;;;;;;;3.95;1.15;;;;;;;;;;5044138;28;20032;-76
2022/04/08 11:01:22;;;;;;;1.10;0.90;;;;;;;;;;5039959;28;20085;-76
2022/04/08 11:03:55;;;;;;;2.25;0.85;;;;;;;;;;5036882;28;20025;-75
2022/04/08 11:06:24;;;;;;;1.20;0.90;;;;;;;;;;5036230;28;20033;-76
2022/04/08 11:08:50;;;;;;;2.55;1.05;;;;;;;;;;5036214;28;20049;-76
2022/04/08 11:11:16;;;;;;;2.80;1.00;;;;;;;;;;5035890;28;20040;-75
2022/04/08 11:13:44;;;;;;;3.95;1.10;;;;;;;;;;5035974;28;20057;-76
2022/04/08 11:16:09;;;;;;;3.72;0.93;;;;;;;;;;5035807;28;20037;-76
2022/04/08 11:18:35;;;;;;;2.97;1.20;;;;;;;;;;5036002;28;20031;-75
2022/04/08 11:21:00;;;;;;;1.95;1.02;;;;;;;;;;5035968;28;20036;-76
2022/04/08 11:23:32;;;;;;;3.38;1.20;;;;;;;;;;5036834;28;20094;-75
2022/04/08 11:25:58;;;;;;;2.55;1.08;;;;;;;;;;5037858;28;20491;-75
2022/04/08 11:28:24;;;;;;;2.53;1.10;;;;;;;;;;5036984;28;20040;-76
2022/04/08 11:30:59;;;;;;;2.58;1.08;;;;;;;;;;5037344;28;20029;-75
2022/04/08 11:33:25;;;;;;;1.77;1.00;;;;;;;;;;5037204;28;20041;-76
2022/04/08 11:35:57;;;;;;;1.92;1.00;;;;;;;;;;5038085;28;20029;-74
2022/04/08 11:38:23;;;;;;;4.20;1.30;;;;;;;;;;5037319;28;20100;-75
2022/04/08 11:40:49;;;;;;;2.10;0.95;;;;;;;;;;5037691;28;20025;-75
2022/04/08 11:43:19;;;;;;;0.98;0.80;;;;;;;;;;5036743;28;20027;-75
2022/04/08 11:45:49;;;;;;;4.20;1.00;;;;;;;;;;5036736;28;20435;-75
2022/04/08 11:48:18;;;;;;;2.95;1.33;;;;;;;;;;5036919;28;20402;-76
2022/04/08 11:50:44;;;;;;;2.05;1.15;;;;;;;;;;5037209;28;20025;-75
2022/04/08 11:53:23;;;;;;;2.72;1.00;;;;;;;;;;5037349;28;20033;-76
2022/04/08 11:55:54;;;;;;;4.07;1.30;;;;;;;;;;5038733;28;20521;-75
2022/04/08 11:58:20;;;;;;;1.60;1.10;;;;;;;;;;5038909;28;20159;-76
2022/04/08 12:00:50;;;;;;;4.07;1.15;;;;;;;;;;5038628;28;20053;-75
2022/04/08 12:03:20;;;;;;;3.05;1.17;;;;;;;;;;5036957;28;20478;-77
2022/04/08 12:05:47;;;;;;;2.65;1.20;;;;;;;;;;5037177;28;20040;-76
2022/04/08 12:08:13;;;;;;;3.33;1.08;;;;;;;;;;5036681;28;20479;-75
2022/04/08 12:10:39;;;;;;;2.85;1.27;;;;;;;;;;5036841;28;20116;-74
2022/04/08 12:13:19;;;;;;;4.13;1.20;;;;;;;;;;5034692;28;20063;-76
2022/04/08 12:15:47;;;;;;;3.58;1.20;;;;;;;;;;5034613;28;20486;-76
2022/04/08 12:18:19;;;;;;;3.10;1.20;;;;;;;;;;5034598;28;20060;-74
2022/04/08 12:20:45;;;;;;;2.22;1.20;;;;;;;;;;5033770;28;20025;-76
2022/04/08 12:23:13;;;;;;;1.70;1.05;;;;;;;;;;5034359;28;20021;-77
2022/04/08 12:25:40;;;;;;;2.05;1.10;;;;;;;;;;5034416;28;20021;-75
2022/04/08 12:28:11;;;;;;;2.97;1.27;;;;;;;;;;5034178;28;20026;-76
2022/04/08 12:30:37;;;;;;;2.17;1.33;;;;;;;;;;5033936;28;20029;-75
2022/04/08 12:33:03;;;;;;;1.75;1.17;;;;;;;;;;5037922;28;20128;-76
2022/04/08 12:35:28;;;;;;;2.70;1.65;;;;;;;;;;5038179;28;20490;-74
2022/04/08 12:37:53;;;;;;;1.77;1.20;;;;;;;;;;5038142;28;20034;-75
2022/04/08 12:40:19;;;;;;;3.92;1.17;;;;;;;;;;5038807;28;20266;-74
2022/04/08 12:42:44;;;;;;;3.40;1.50;;;;;;;;;;5038127;28;20024;-76
2022/04/08 12:45:10;;;;;;;2.97;1.40;;;;;;;;;;5038188;28;20029;-76
2022/04/08 12:47:36;;;;;;;2.72;1.55;;;;;;;;;;5037720;28;20033;-76
2022/04/08 12:50:02;;;;;;;1.75;1.23;;;;;;;;;;5037843;28;20052;-75
2022/04/08 12:52:27;;;;;;;1.40;1.20;;;;;;;;;;5037436;28;20025;-75
2022/04/08 12:54:54;;;;;;;3.47;1.17;;;;;;;;;;5038021;28;20025;-75
2022/04/08 12:57:20;;;;;;;2.22;1.30;;;;;;;;;;5037441;28;20794;-75
2022/04/08 12:59:47;;;;;;;1.92;1.20;;;;;;;;;;5037469;28;20057;-75
2022/04/08 13:02:12;;;;;;;2.08;1.33;;;;;;;;;;5038344;28;20021;-76
2022/04/08 13:04:37;;;;;;;2.50;1.15;;;;;;;;;;5039327;28;20040;-76
2022/04/08 13:07:05;;;;;;;3.07;1.13;;;;;;;;;;5038834;28;20056;-78
2022/04/08 13:09:30;;;;;;;3.33;1.30;;;;;;;;;;5039138;28;20262;-74
2022/04/08 13:11:55;;;;;;;4.50;1.52;;;;;;;;;;5038283;28;20017;-75
2022/04/08 13:14:21;;;;;;;2.25;1.20;;;;;;;;;;5038876;28;20033;-76
2022/04/08 13:16:46;;;;;;;1.58;1.10;;;;;;;;;;5039648;28;20482;-75
2022/04/08 13:19:11;;;;;;;2.50;1.27;;;;;;;;;;5039560;28;20501;-79
2022/04/08 13:21:39;;;;;;;3.78;1.30;;;;;;;;;;5038904;28;20086;-76
2022/04/08 13:24:06;;;;;;;1.40;1.20;;;;;;;;;;5039517;28;20036;-79
2022/04/08 13:26:31;;;;;;;3.88;1.35;;;;;;;;;;5038955;28;20156;-75
2022/04/08 13:28:56;;;;;;;5.20;1.27;;;;;;;;;;5039497;28;20513;-76
2022/04/08 13:31:21;;;;;;;3.60;1.37;;;;;;;;;;5039050;28;20682;-75
2022/04/08 13:33:47;;;;;;;3.13;1.60;;;;;;;;;;5038356;28;20671;-76
2022/04/08 13:36:12;;;;;;;4.90;1.60;;;;;;;;;;5038355;28;20025;-75
2022/04/08 13:38:37;;;;;;;3.33;1.57;;;;;;;;;;5038916;28;20338;-75
2022/04/08 13:41:02;;;;;;;2.33;1.30;;;;;;;;;;5037952;28;20251;-75
2022/04/08 13:43:28;;;;;;;4.47;1.43;;;;;;;;;;5037835;28;20266;-76
2022/04/08 13:45:53;;;;;;;2.85;1.50;;;;;;;;;;5037675;28;20270;-75
2022/04/08 13:48:18;;;;;;;2.55;1.35;;;;;;;;;;5039428;28;20508;-76
2022/04/08 13:50:44;;;;;;;2.53;1.30;;;;;;;;;;5038438;28;20033;-76
2022/04/08 13:53:09;;;;;;;1.27;1.10;;;;;;;;;;5038009;28;20747;-76
2022/04/08 13:55:35;;;;;;;2.07;1.20;;;;;;;;;;5037776;28;20037;-76
2022/04/08 13:58:00;;;;;;;2.37;1.30;;;;;;;;;;5037975;28;20262;-75
2022/04/08 14:00:25;;;;;;;2.40;1.30;;;;;;;;;;5039215;28;20266;-76
2022/04/08 14:02:50;;;;;;;2.38;1.20;;;;;;;;;;5039152;28;20262;-75
2022/04/08 14:05:16;;;;;;;1.65;1.00;;;;;;;;;;5039125;28;20021;-76
2022/04/08 14:07:41;;;;;;;2.30;1.10;;;;;;;;;;5036651;28;20026;-76
2022/04/08 14:10:06;;;;;;;2.30;1.05;;;;;;;;;;5038381;28;20346;-76
2022/04/08 14:12:32;;;;;;;1.83;1.20;;;;;;;;;;5037590;28;20116;-76
2022/04/08 14:14:57;;;;;;;2.05;1.00;;;;;;;;;;5037701;28;20030;-75
2022/04/08 14:17:23;;;;;;;2.67;1.00;;;;;;;;;;5037352;28;20029;-75
2022/04/08 14:19:48;;;;;;;3.42;1.20;;;;;;;;;;5038021;28;20029;-75
2022/04/08 14:22:14;;;;;;;1.43;1.20;;;;;;;;;;5037418;28;20013;-75
2022/04/08 14:24:39;;;;;;;2.10;1.07;;;;;;;;;;5036852;28;20350;-75
2022/04/08 14:27:04;;;;;;;2.47;0.98;;;;;;;;;;5037316;28;20294;-75
2022/04/08 14:29:30;;;;;;;1.75;0.90;;;;;;;;;;5037821;28;20029;-76
2022/04/08 14:31:55;;;;;;;2.50;1.10;;;;;;;;;;5037961;28;20025;-75
2022/04/08 14:34:20;;;;;;;2.17;1.00;;;;;;;;;;5038395;28;20032;-74
2022/04/08 14:36:47;;;;;;;2.67;1.00;;;;;;;;;;5037798;28;20486;-75
2022/04/08 14:39:12;;;;;;;2.92;1.27;;;;;;;;;;5038840;28;20025;-75